createdAt,value
2023-01-31T00:01:58.868Z,47.10
2023-01-31T00:04:27.011Z,43.50
2023-01-31T00:06:54.911Z,46.40
2023-01-31T00:09:22.829Z,42.80
2023-01-31T00:11:50.828Z,42.40
2023-01-31T00:14:22.747Z,45.70
2023-01-31T00:16:52.281Z,44.40
2023-01-31T00:19:20.276Z,49.10
2023-01-31T00:21:48.331Z,54.20
2023-01-31T00:24:16.329Z,47.60
2023-01-31T00:26:44.448Z,47.70
2023-01-31T00:29:12.427Z,47.00
2023-01-31T00:31:40.611Z,47.60
2023-01-31T00:34:08.811Z,43.90
2023-01-31T00:36:37.763Z,44.30
2023-01-31T00:39:08.461Z,42.20
2023-01-31T00:41:38.627Z,38.70
2023-01-31T00:44:07.440Z,43.40
2023-01-31T00:46:36.475Z,38.70
2023-01-31T00:49:04.776Z,40.20
2023-01-31T00:51:32.919Z,41.60
2023-01-31T00:54:00.944Z,37.50
2023-01-31T00:56:29.279Z,36.40
2023-01-31T00:58:57.451Z,33.20
2023-01-31T01:01:28.228Z,35.90
2023-01-31T01:03:57.845Z,28.30
2023-01-31T01:06:26.926Z,28.70
2023-01-31T01:08:57.554Z,26.70
2023-01-31T01:11:32.063Z,25.70
2023-01-31T01:14:01.166Z,27.10
2023-01-31T01:16:38.271Z,29.40
2023-01-31T01:19:10.633Z,26.90
2023-01-31T01:21:39.600Z,28.50
2023-01-31T01:24:19.061Z,28.90
2023-01-31T01:26:48.637Z,32.40
2023-01-31T01:29:16.647Z,39.00
2023-01-31T01:31:45.830Z,35.00
2023-01-31T01:34:16.308Z,33.40
2023-01-31T01:36:47.530Z,34.30
2023-01-31T01:39:18.249Z,31.00
2023-01-31T01:41:47.680Z,29.00
2023-01-31T01:44:46.811Z,27.10
2023-01-31T01:47:30.666Z,29.70
2023-01-31T01:50:17.780Z,30.00
2023-01-31T01:52:50.727Z,30.50
2023-01-31T01:55:22.271Z,28.70
2023-01-31T01:57:54.289Z,26.70
2023-01-31T02:00:27.442Z,27.10
2023-01-31T02:02:59.351Z,32.40
2023-01-31T02:05:53.572Z,32.40
2023-01-31T02:08:25.900Z,32.20
2023-01-31T02:11:04.430Z,30.80
2023-01-31T02:13:33.503Z,30.00
2023-01-31T02:16:01.558Z,29.90
2023-01-31T02:18:29.857Z,25.30
2023-01-31T02:21:00.699Z,27.60
2023-01-31T02:23:59.295Z,25.70
2023-01-31T02:26:46.131Z,25.70
2023-01-31T02:29:35.475Z,25.90
2023-01-31T02:32:31.091Z,27.80
2023-01-31T02:37:40.008Z,30.60
2023-01-31T02:40:23.003Z,31.50
2023-01-31T02:43:10.001Z,31.40
2023-01-31T02:46:00.245Z,30.10
2023-01-31T02:48:43.687Z,28.30
2023-01-31T02:51:25.074Z,27.90
2023-01-31T02:54:01.736Z,28.10
2023-01-31T02:56:33.694Z,26.10
2023-01-31T02:59:10.465Z,23.60
2023-01-31T03:01:42.814Z,28.70
2023-01-31T03:04:13.632Z,32.50
2023-01-31T03:06:54.868Z,31.70
2023-01-31T03:09:36.880Z,40.20
2023-01-31T03:12:12.121Z,42.80
2023-01-31T03:14:53.236Z,40.20
2023-01-31T03:17:35.217Z,39.50
2023-01-31T03:20:08.535Z,34.00
2023-01-31T03:22:48.866Z,24.40
2023-01-31T03:25:22.046Z,28.30
2023-01-31T03:27:57.060Z,26.70
2023-01-31T03:30:37.738Z,30.60
2023-01-31T03:33:15.896Z,27.20
2023-01-31T03:35:52.596Z,30.30
2023-01-31T03:38:25.834Z,30.70
2023-01-31T03:40:58.233Z,29.90
2023-01-31T03:43:40.656Z,27.10
2023-01-31T03:46:16.891Z,27.20
2023-01-31T03:48:51.281Z,35.10
2023-01-31T03:51:24.998Z,25.70
2023-01-31T03:54:00.375Z,28.20
2023-01-31T03:56:50.975Z,20.40
2023-01-31T03:59:24.913Z,27.10
2023-01-31T04:01:57.774Z,27.30
2023-01-31T04:04:32.886Z,29.10
2023-01-31T04:07:02.063Z,24.70
2023-01-31T04:09:31.452Z,25.70
2023-01-31T04:12:01.765Z,26.80
2023-01-31T04:14:29.818Z,25.80
2023-01-31T04:16:57.891Z,24.80
2023-01-31T04:19:25.854Z,20.70
2023-01-31T04:21:54.009Z,24.50
2023-01-31T04:24:23.249Z,24.40
2023-01-31T04:26:51.232Z,27.60
2023-01-31T04:29:19.417Z,30.80
2023-01-31T04:31:47.816Z,26.00
2023-01-31T04:34:15.841Z,26.50
2023-01-31T04:36:43.859Z,22.30
2023-01-31T04:39:13.715Z,22.50
2023-01-31T04:41:41.711Z,23.10
2023-01-31T04:44:10.474Z,21.70
2023-01-31T04:46:38.614Z,22.30
2023-01-31T04:49:06.780Z,22.70
2023-01-31T04:51:35.131Z,22.80
2023-01-31T04:54:03.134Z,22.70
2023-01-31T04:56:32.119Z,27.80
2023-01-31T04:59:00.166Z,25.50
2023-01-31T05:01:29.296Z,26.60
2023-01-31T05:03:57.301Z,27.10
2023-01-31T05:06:25.375Z,25.00
2023-01-31T05:08:54.619Z,30.00
2023-01-31T05:11:22.603Z,21.30
2023-01-31T05:13:50.576Z,17.50
2023-01-31T05:16:18.637Z,19.70
2023-01-31T05:18:46.631Z,17.40
2023-01-31T05:21:14.805Z,22.40
2023-01-31T05:23:42.792Z,21.00
2023-01-31T05:26:11.407Z,27.30
2023-01-31T05:28:39.422Z,24.20
2023-01-31T05:31:09.093Z,25.40
2023-01-31T05:33:38.320Z,18.50
2023-01-31T05:36:07.060Z,21.70
2023-01-31T05:38:35.666Z,24.70
2023-01-31T05:41:03.706Z,19.90
2023-01-31T05:43:32.284Z,23.50
2023-01-31T05:46:02.703Z,21.40
2023-01-31T05:48:31.097Z,19.40
2023-01-31T05:50:59.183Z,24.70
2023-01-31T05:53:27.357Z,24.30
2023-01-31T05:55:55.652Z,25.60
2023-01-31T05:58:23.595Z,24.60
2023-01-31T06:00:56.591Z,23.90
2023-01-31T06:03:24.731Z,23.70
2023-01-31T06:05:53.645Z,26.30
2023-01-31T06:08:22.240Z,27.80
2023-01-31T06:10:52.341Z,23.40
2023-01-31T06:13:20.292Z,21.70
2023-01-31T06:15:49.777Z,24.60
2023-01-31T06:18:18.219Z,24.00
2023-01-31T06:20:46.253Z,22.00
2023-01-31T06:23:14.648Z,25.80
2023-01-31T06:25:43.069Z,23.00
2023-01-31T06:28:11.275Z,26.60
2023-01-31T06:30:40.274Z,26.50
2023-01-31T06:33:08.974Z,25.30
2023-01-31T06:35:37.451Z,26.00
2023-01-31T06:38:06.615Z,28.70
2023-01-31T06:40:36.570Z,42.20
2023-01-31T06:43:04.852Z,26.20
2023-01-31T06:45:33.122Z,26.60
2023-01-31T06:48:01.823Z,27.70
2023-01-31T06:50:30.799Z,42.50
2023-01-31T06:52:59.475Z,31.00
2023-01-31T06:55:28.064Z,26.40
2023-01-31T06:57:56.220Z,29.80
2023-01-31T07:00:26.066Z,27.80
2023-01-31T07:02:54.447Z,46.70
2023-01-31T07:05:23.575Z,53.20
2023-01-31T07:07:52.502Z,41.50
2023-01-31T07:10:20.689Z,32.90
2023-01-31T07:12:48.956Z,29.00
2023-01-31T07:15:19.799Z,27.20
2023-01-31T07:17:48.033Z,35.50
2023-01-31T07:20:16.299Z,41.70
2023-01-31T07:22:44.240Z,39.50
2023-01-31T07:25:12.230Z,31.50
2023-01-31T07:27:40.187Z,31.60
2023-01-31T07:30:08.772Z,29.10
2023-01-31T07:32:37.653Z,30.10
2023-01-31T07:35:06.145Z,28.40
2023-01-31T07:37:34.212Z,27.70
2023-01-31T07:40:02.219Z,34.20
2023-01-31T07:42:30.995Z,29.80
2023-01-31T07:45:06.959Z,27.60
2023-01-31T07:47:45.065Z,30.10
2023-01-31T07:50:13.594Z,32.00
2023-01-31T07:52:42.082Z,33.70
2023-01-31T07:55:10.516Z,34.30
2023-01-31T07:57:39.514Z,34.00
2023-01-31T08:00:31.097Z,29.10
2023-01-31T08:03:17.599Z,31.20
2023-01-31T08:05:47.678Z,41.50
2023-01-31T08:08:15.815Z,33.50
2023-01-31T08:10:43.875Z,28.40
2023-01-31T08:13:12.956Z,23.30
2023-01-31T08:15:40.924Z,25.80
2023-01-31T08:18:09.033Z,27.90
2023-01-31T08:20:41.653Z,27.60
2023-01-31T08:23:09.624Z,29.10
2023-01-31T08:25:37.721Z,32.20
2023-01-31T08:28:05.981Z,33.30
2023-01-31T08:30:34.614Z,27.50
2023-01-31T08:33:02.958Z,31.00
2023-01-31T08:35:31.544Z,29.30
2023-01-31T08:38:15.418Z,27.70
2023-01-31T08:40:44.720Z,28.30
2023-01-31T08:43:13.351Z,29.60
2023-01-31T08:45:42.391Z,34.40
2023-01-31T08:48:11.002Z,32.00
2023-01-31T08:50:40.588Z,39.20
2023-01-31T08:53:09.293Z,52.60
2023-01-31T08:55:37.456Z,38.50
2023-01-31T08:58:06.026Z,33.70
2023-01-31T09:00:35.857Z,33.10
2023-01-31T09:03:04.927Z,33.10
2023-01-31T09:05:34.786Z,36.20
2023-01-31T09:08:03.068Z,39.70
2023-01-31T09:10:31.454Z,33.20
2023-01-31T09:13:10.142Z,28.30
2023-01-31T09:15:38.186Z,27.90
2023-01-31T09:18:06.470Z,28.60
2023-01-31T09:20:34.469Z,33.70
2023-01-31T09:23:04.005Z,27.70
2023-01-31T09:25:44.827Z,38.80
2023-01-31T09:28:24.633Z,42.50
2023-01-31T09:30:56.608Z,27.20
2023-01-31T09:33:24.960Z,30.10
2023-01-31T09:36:02.153Z,34.70
2023-01-31T09:38:31.066Z,33.10
2023-01-31T09:41:05.669Z,18.10
2023-01-31T09:43:44.412Z,21.60
2023-01-31T09:46:20.108Z,16.20
2023-01-31T09:48:53.627Z,13.70
2023-01-31T09:51:24.433Z,11.30
2023-01-31T09:53:57.232Z,16.60
2023-01-31T09:56:40.947Z,11.00
2023-01-31T09:59:12.788Z,17.40
2023-01-31T10:02:10.126Z,13.20
2023-01-31T10:05:04.131Z,14.90
2023-01-31T10:08:08.755Z,16.20
2023-01-31T10:10:43.504Z,12.60
2023-01-31T10:13:39.742Z,15.40
2023-01-31T10:16:25.970Z,16.80
2023-01-31T10:19:02.513Z,12.80
2023-01-31T10:21:40.183Z,12.50
2023-01-31T10:24:19.445Z,14.00
2023-01-31T10:26:51.508Z,15.30
2023-01-31T10:29:43.573Z,12.80
2023-01-31T10:32:38.931Z,12.90
2023-01-31T10:35:37.329Z,8.30
2023-01-31T10:38:19.516Z,9.30
2023-01-31T10:40:59.183Z,12.50
2023-01-31T10:43:44.605Z,12.40
2023-01-31T10:46:14.808Z,9.90
2023-01-31T10:48:47.433Z,13.70
2023-01-31T10:52:15.095Z,10.00
2023-01-31T10:55:14.316Z,14.40
2023-01-31T10:57:45.068Z,11.10
2023-01-31T11:00:26.481Z,10.40
2023-01-31T11:02:58.139Z,10.60
2023-01-31T11:05:29.739Z,7.90
2023-01-31T11:08:01.449Z,10.20
2023-01-31T11:10:32.437Z,10.00
2023-01-31T11:13:07.424Z,12.00
2023-01-31T11:15:39.537Z,10.80
2023-01-31T11:18:15.280Z,11.50
2023-01-31T11:20:50.956Z,10.40
2023-01-31T11:23:25.953Z,13.00
2023-01-31T11:25:55.931Z,12.90
2023-01-31T11:28:38.334Z,8.40
2023-01-31T11:31:17.677Z,13.00
2023-01-31T11:33:55.967Z,19.30
2023-01-31T11:36:28.785Z,11.60
2023-01-31T11:38:56.963Z,18.10
2023-01-31T11:41:30.071Z,12.70
2023-01-31T11:44:16.560Z,11.80
2023-01-31T11:47:00.752Z,10.00
2023-01-31T11:49:30.494Z,18.10
2023-01-31T11:52:21.984Z,13.70
2023-01-31T11:54:57.943Z,6.80
2023-01-31T11:57:32.012Z,10.30
2023-01-31T12:00:03.734Z,12.00
2023-01-31T12:02:42.207Z,10.10
2023-01-31T12:05:17.949Z,9.90
2023-01-31T12:08:06.943Z,16.80
2023-01-31T12:10:47.235Z,17.60
2023-01-31T12:13:20.931Z,8.60
2023-01-31T12:15:57.003Z,9.10
2023-01-31T12:18:51.932Z,9.80
2023-01-31T12:21:25.894Z,7.10
2023-01-31T12:24:15.073Z,8.90
2023-01-31T12:26:57.024Z,8.40
2023-01-31T12:29:46.968Z,6.60
2023-01-31T12:32:35.608Z,9.10
2023-01-31T12:36:01.687Z,10.60
2023-01-31T12:38:48.870Z,9.70
2023-01-31T12:41:40.464Z,11.60
2023-01-31T12:44:39.716Z,10.50
2023-01-31T12:47:31.681Z,15.30
2023-01-31T12:50:02.612Z,9.40
2023-01-31T12:53:04.759Z,6.70
2023-01-31T12:55:44.314Z,8.30
2023-01-31T12:58:30.581Z,12.20
2023-01-31T13:01:07.629Z,8.40
2023-01-31T13:03:48.547Z,11.10
2023-01-31T13:06:23.969Z,8.60
2023-01-31T13:09:07.773Z,11.50
2023-01-31T13:11:55.042Z,8.50
2023-01-31T13:14:31.112Z,5.60
2023-01-31T13:17:05.016Z,9.10
2023-01-31T13:19:51.632Z,8.00
2023-01-31T13:22:28.815Z,7.90
2023-01-31T13:25:09.004Z,8.30
2023-01-31T13:27:42.273Z,7.50
2023-01-31T13:30:24.502Z,6.60
2023-01-31T13:32:56.643Z,7.60
2023-01-31T13:35:40.872Z,11.20
2023-01-31T13:38:21.098Z,14.20
2023-01-31T13:40:56.382Z,13.20
2023-01-31T13:46:08.356Z,6.90
2023-01-31T13:48:43.798Z,10.80
2023-01-31T13:51:44.008Z,11.50
2023-01-31T13:54:36.380Z,11.50
2023-01-31T13:57:06.688Z,11.50
2023-01-31T13:59:40.728Z,13.60
2023-01-31T14:02:21.806Z,11.70
2023-01-31T14:04:51.226Z,10.40
2023-01-31T14:07:21.844Z,6.40
2023-01-31T14:09:50.093Z,7.30
2023-01-31T14:12:18.717Z,24.10
2023-01-31T14:14:52.547Z,7.70
2023-01-31T14:17:29.954Z,11.40
2023-01-31T14:19:58.022Z,6.80
2023-01-31T14:22:36.028Z,7.30
2023-01-31T14:25:15.497Z,31.50
2023-01-31T14:28:01.465Z,11.10
2023-01-31T14:30:48.696Z,11.10
2023-01-31T14:33:20.804Z,13.50
2023-01-31T14:35:58.107Z,14.30
2023-01-31T14:38:36.827Z,10.70
2023-01-31T14:41:16.920Z,7.80
2023-01-31T14:44:17.001Z,8.20
2023-01-31T14:46:57.163Z,7.70
2023-01-31T14:49:26.881Z,14.20
2023-01-31T14:52:09.811Z,12.80
2023-01-31T14:54:56.941Z,12.30
2023-01-31T14:57:30.744Z,13.60
2023-01-31T15:00:05.095Z,11.40
2023-01-31T15:02:42.013Z,12.60
2023-01-31T15:05:21.390Z,13.30
2023-01-31T15:08:27.003Z,9.20
2023-01-31T15:11:06.756Z,6.40
2023-01-31T15:13:47.076Z,9.10
2023-01-31T15:16:28.355Z,10.00
2023-01-31T15:19:00.577Z,11.00
2023-01-31T15:21:35.235Z,14.90
2023-01-31T15:24:05.315Z,13.70
2023-01-31T15:26:37.289Z,13.40
2023-01-31T15:29:07.259Z,10.00
2023-01-31T15:31:44.478Z,11.00
2023-01-31T15:34:29.826Z,10.50
2023-01-31T15:37:04.364Z,11.00
2023-01-31T15:39:57.086Z,8.10
2023-01-31T15:42:26.963Z,11.10
2023-01-31T15:45:13.664Z,9.10
2023-01-31T15:47:44.712Z,9.40
2023-01-31T15:50:18.585Z,13.70
2023-01-31T15:52:47.138Z,11.40
2023-01-31T15:55:18.825Z,8.30
2023-01-31T15:57:56.949Z,7.80
2023-01-31T16:00:35.200Z,9.90
2023-01-31T16:03:08.081Z,9.50
2023-01-31T16:05:39.325Z,12.60
2023-01-31T16:08:28.493Z,13.50
2023-01-31T16:10:57.965Z,13.10
2023-01-31T16:13:27.113Z,9.10
2023-01-31T16:15:55.349Z,11.10
2023-01-31T16:18:24.546Z,10.30
2023-01-31T16:20:55.010Z,10.00
2023-01-31T16:23:22.916Z,10.30
2023-01-31T16:26:00.930Z,13.30
2023-01-31T16:28:45.627Z,17.30
2023-01-31T16:31:17.508Z,17.60
2023-01-31T16:33:52.705Z,12.00
2023-01-31T16:36:26.082Z,17.80
2023-01-31T16:39:01.198Z,25.70
2023-01-31T16:41:52.570Z,14.70
2023-01-31T16:44:23.171Z,11.80
2023-01-31T16:46:51.678Z,14.20
2023-01-31T16:49:28.924Z,12.80
2023-01-31T16:52:24.844Z,12.50
2023-01-31T16:54:56.547Z,12.60
2023-01-31T16:57:35.857Z,17.10
2023-01-31T17:00:36.904Z,18.60
2023-01-31T17:03:19.971Z,11.30
2023-01-31T17:05:48.288Z,14.00
2023-01-31T17:08:22.220Z,10.00
2023-01-31T17:10:51.711Z,11.50
2023-01-31T17:13:25.840Z,18.80
2023-01-31T17:15:54.259Z,22.20
2023-01-31T17:18:22.312Z,13.20
2023-01-31T17:20:50.859Z,14.60
2023-01-31T17:23:19.941Z,13.20
2023-01-31T17:25:48.056Z,12.90
2023-01-31T17:28:16.286Z,15.70
2023-01-31T17:30:46.466Z,14.20
2023-01-31T17:33:16.041Z,16.10
2023-01-31T17:35:48.991Z,12.40
2023-01-31T17:38:17.065Z,14.90
2023-01-31T17:40:48.981Z,12.60
2023-01-31T17:43:22.141Z,13.20
2023-01-31T17:45:50.091Z,15.00
2023-01-31T17:48:26.257Z,11.40
2023-01-31T17:50:55.425Z,14.50
2023-01-31T17:53:23.741Z,12.80
2023-01-31T17:55:54.421Z,18.30
2023-01-31T17:58:23.090Z,12.60
2023-01-31T18:00:51.104Z,15.30
2023-01-31T18:03:25.618Z,13.40
2023-01-31T18:05:54.853Z,13.60
2023-01-31T18:08:24.762Z,15.30
2023-01-31T18:10:55.224Z,15.30
2023-01-31T18:13:23.151Z,17.90
2023-01-31T18:16:02.094Z,13.90
2023-01-31T18:18:30.357Z,15.90
2023-01-31T18:20:58.952Z,14.40
2023-01-31T18:23:27.074Z,10.90
2023-01-31T18:25:54.998Z,16.00
2023-01-31T18:28:24.076Z,34.00
2023-01-31T18:30:52.155Z,11.90
2023-01-31T18:33:20.275Z,14.00
2023-01-31T18:35:58.732Z,18.00
2023-01-31T18:38:28.287Z,16.10
2023-01-31T18:40:59.560Z,11.50
2023-01-31T18:43:29.822Z,18.30
2023-01-31T18:45:57.872Z,18.80
2023-01-31T18:48:26.077Z,11.00
2023-01-31T18:50:54.370Z,17.10
2023-01-31T18:53:22.574Z,14.10
2023-01-31T18:55:58.902Z,23.50
2023-01-31T18:58:37.405Z,15.00
2023-01-31T19:01:13.224Z,14.00
2023-01-31T19:03:42.973Z,10.60
2023-01-31T19:06:12.425Z,12.20
2023-01-31T19:08:41.011Z,14.20
2023-01-31T19:11:09.208Z,13.20
2023-01-31T19:13:38.359Z,17.00
2023-01-31T19:16:10.115Z,17.40
2023-01-31T19:18:38.619Z,13.40
2023-01-31T19:21:22.165Z,14.80
2023-01-31T19:23:55.934Z,10.80
2023-01-31T19:26:24.256Z,13.50
2023-01-31T19:28:54.445Z,14.70
2023-01-31T19:31:25.693Z,14.90
2023-01-31T19:33:56.575Z,16.00
2023-01-31T19:36:30.433Z,12.10
2023-01-31T19:39:00.718Z,13.90
2023-01-31T19:41:33.459Z,15.90
2023-01-31T19:44:02.055Z,15.90
2023-01-31T19:46:33.265Z,19.70
2023-01-31T19:49:01.913Z,15.00
2023-01-31T19:51:30.966Z,17.10
2023-01-31T19:54:03.597Z,16.10
2023-01-31T19:56:32.331Z,15.00
2023-01-31T19:59:00.875Z,15.10
2023-01-31T20:01:29.216Z,17.60
2023-01-31T20:03:57.313Z,12.40
2023-01-31T20:06:28.843Z,14.70
2023-01-31T20:08:59.188Z,19.70
2023-01-31T20:11:29.719Z,18.30
2023-01-31T20:13:58.114Z,17.20
2023-01-31T20:16:27.305Z,16.10
2023-01-31T20:18:56.337Z,15.90
2023-01-31T20:21:24.595Z,17.90
2023-01-31T20:23:52.704Z,17.60
2023-01-31T20:26:22.914Z,14.50
2023-01-31T20:28:51.215Z,15.30
2023-01-31T20:31:19.458Z,15.10
2023-01-31T20:33:47.533Z,12.80
2023-01-31T20:36:15.503Z,11.20
2023-01-31T20:38:43.516Z,13.80
2023-01-31T20:41:11.653Z,9.30
2023-01-31T20:43:39.656Z,11.40
2023-01-31T20:46:10.537Z,13.90
2023-01-31T20:48:40.117Z,14.80
2023-01-31T20:51:09.037Z,18.20
2023-01-31T20:53:37.420Z,16.40
2023-01-31T20:56:10.599Z,14.60
2023-01-31T20:58:41.433Z,17.60
2023-01-31T21:01:12.627Z,15.00
2023-01-31T21:03:40.995Z,17.00
2023-01-31T21:06:09.274Z,15.30
2023-01-31T21:08:37.341Z,15.80
2023-01-31T21:11:08.160Z,12.60
2023-01-31T21:13:37.241Z,11.80
2023-01-31T21:16:10.275Z,11.30
2023-01-31T21:18:40.870Z,15.70
2023-01-31T21:21:11.123Z,12.90
2023-01-31T21:23:40.475Z,14.90
2023-01-31T21:26:11.505Z,13.70
2023-01-31T21:28:43.981Z,10.40
2023-01-31T21:31:17.624Z,11.40
2023-01-31T21:33:48.097Z,11.20
2023-01-31T21:36:19.701Z,7.40
2023-01-31T21:38:48.375Z,7.30
2023-01-31T21:41:36.627Z,8.90
2023-01-31T21:44:04.717Z,8.50
2023-01-31T21:46:32.897Z,8.20
2023-01-31T21:49:01.516Z,8.60
2023-01-31T21:51:29.691Z,10.00
2023-01-31T21:53:57.687Z,11.30
2023-01-31T21:56:28.231Z,9.80
2023-01-31T21:58:57.175Z,8.70
2023-01-31T22:01:28.925Z,12.40
2023-01-31T22:03:58.365Z,9.40
2023-01-31T22:06:31.561Z,10.70
2023-01-31T22:09:01.435Z,10.10
2023-01-31T22:11:34.715Z,10.40
2023-01-31T22:14:06.287Z,8.90
2023-01-31T22:16:34.901Z,9.10
2023-01-31T22:19:06.348Z,8.50
2023-01-31T22:21:36.886Z,8.10
2023-01-31T22:24:06.435Z,9.10
2023-01-31T22:26:37.289Z,10.00
2023-01-31T22:29:07.748Z,10.60
2023-01-31T22:31:36.838Z,9.70
2023-01-31T22:34:07.108Z,11.40
2023-01-31T22:36:35.624Z,11.00
2023-01-31T22:39:03.708Z,11.20
2023-01-31T22:41:32.134Z,11.20
2023-01-31T22:44:00.091Z,15.10
2023-01-31T22:46:29.087Z,12.30
2023-01-31T22:48:57.728Z,13.50
2023-01-31T22:51:27.947Z,12.50
2023-01-31T22:53:57.741Z,11.40
2023-01-31T22:56:31.572Z,10.30
2023-01-31T22:59:02.623Z,12.20
2023-01-31T23:01:34.825Z,11.50
2023-01-31T23:04:06.749Z,13.50
2023-01-31T23:06:35.878Z,15.40
2023-01-31T23:09:04.415Z,11.90
2023-01-31T23:11:32.970Z,13.50
2023-01-31T23:14:01.139Z,14.90
2023-01-31T23:16:47.830Z,13.60
2023-01-31T23:19:16.474Z,14.90
2023-01-31T23:21:45.169Z,15.20
2023-01-31T23:24:16.939Z,12.40
2023-01-31T23:26:44.997Z,11.90
2023-01-31T23:29:13.422Z,13.60
2023-01-31T23:31:41.677Z,12.30
2023-01-31T23:34:10.067Z,13.00
2023-01-31T23:36:38.049Z,12.50
2023-01-31T23:39:06.350Z,14.30
2023-01-31T23:41:34.370Z,19.00
2023-01-31T23:44:03.720Z,15.50
2023-01-31T23:46:32.036Z,14.20
2023-01-31T23:49:00.114Z,14.30
2023-01-31T23:51:28.643Z,12.90
2023-01-31T23:53:57.194Z,13.50
2023-01-31T23:56:26.685Z,14.80
2023-01-31T23:58:54.873Z,13.20
